sensor_id;sensor_type;location;lat;lon;timestamp;P1;durP1;ratioP1;P2;durP2;ratioP2
57313;SDS011;53202;50.976;18.216;2022-08-16T00:01:47;14.70;;;13.20;;
57313;SDS011;53202;50.976;18.216;2022-08-16T00:04:14;18.20;;;13.00;;
57313;SDS011;53202;50.976;18.216;2022-08-16T00:06:41;15.60;;;13.40;;
57313;SDS011;53202;50.976;18.216;2022-08-16T00:09:07;18.60;;;13.10;;
57313;SDS011;53202;50.976;18.216;2022-08-16T00:11:35;14.70;;;13.10;;
57313;SDS011;53202;50.976;18.216;2022-08-16T00:14:02;15.20;;;12.70;;
57313;SDS011;53202;50.976;18.216;2022-08-16T00:16:32;17.50;;;13.60;;
57313;SDS011;53202;50.976;18.216;2022-08-16T00:18:58;13.30;;;11.90;;
57313;SDS011;53202;50.976;18.216;2022-08-16T00:21:25;17.70;;;12.70;;
57313;SDS011;53202;50.976;18.216;2022-08-16T00:23:51;13.50;;;12.10;;
57313;SDS011;53202;50.976;18.216;2022-08-16T00:26:18;14.50;;;13.00;;
57313;SDS011;53202;50.976;18.216;2022-08-16T00:28:44;16.40;;;12.70;;
57313;SDS011;53202;50.976;18.216;2022-08-16T00:31:10;13.20;;;11.90;;
57313;SDS011;53202;50.976;18.216;2022-08-16T00:33:36;17.50;;;12.00;;
57313;SDS011;53202;50.976;18.216;2022-08-16T00:36:02;15.30;;;13.10;;
57313;SDS011;53202;50.976;18.216;2022-08-16T00:38:29;13.90;;;12.40;;
57313;SDS011;53202;50.976;18.216;2022-08-16T00:40:55;13.50;;;12.10;;
57313;SDS011;53202;50.976;18.216;2022-08-16T00:43:23;15.40;;;12.20;;
57313;SDS011;53202;50.976;18.216;2022-08-16T00:48:54;14.80;;;13.10;;
57313;SDS011;53202;50.976;18.216;2022-08-16T00:51:22;14.20;;;12.90;;
57313;SDS011;53202;50.976;18.216;2022-08-16T00:53:49;13.30;;;11.80;;
57313;SDS011;53202;50.976;18.216;2022-08-16T00:56:18;13.30;;;11.90;;
57313;SDS011;53202;50.976;18.216;2022-08-16T00:58:47;15.50;;;12.60;;
57313;SDS011;53202;50.976;18.216;2022-08-16T01:01:14;12.80;;;11.60;;
57313;SDS011;53202;50.976;18.216;2022-08-16T01:03:43;14.10;;;12.60;;
57313;SDS011;53202;50.976;18.216;2022-08-16T01:06:11;15.20;;;12.90;;
57313;SDS011;53202;50.976;18.216;2022-08-16T01:08:39;14.20;;;12.70;;
57313;SDS011;53202;50.976;18.216;2022-08-16T01:11:06;14.90;;;13.10;;
57313;SDS011;53202;50.976;18.216;2022-08-16T01:13:34;18.50;;;13.90;;
57313;SDS011;53202;50.976;18.216;2022-08-16T01:16:03;15.00;;;12.90;;
57313;SDS011;53202;50.976;18.216;2022-08-16T01:18:39;16.40;;;14.40;;
57313;SDS011;53202;50.976;18.216;2022-08-16T01:24:27;16.70;;;14.50;;
57313;SDS011;53202;50.976;18.216;2022-08-16T01:29:41;16.20;;;14.50;;
57313;SDS011;53202;50.976;18.216;2022-08-16T01:32:11;18.00;;;14.50;;
57313;SDS011;53202;50.976;18.216;2022-08-16T01:34:37;17.50;;;13.90;;
57313;SDS011;53202;50.976;18.216;2022-08-16T01:37:04;16.30;;;13.90;;
57313;SDS011;53202;50.976;18.216;2022-08-16T01:39:33;14.90;;;13.40;;
57313;SDS011;53202;50.976;18.216;2022-08-16T01:41:59;15.00;;;13.20;;
57313;SDS011;53202;50.976;18.216;2022-08-16T01:44:26;15.40;;;13.80;;
57313;SDS011;53202;50.976;18.216;2022-08-16T01:46:53;16.00;;;14.30;;
57313;SDS011;53202;50.976;18.216;2022-08-16T01:49:22;16.00;;;13.80;;
57313;SDS011;53202;50.976;18.216;2022-08-16T01:51:53;14.80;;;13.20;;
57313;SDS011;53202;50.976;18.216;2022-08-16T01:54:22;15.60;;;14.00;;
57313;SDS011;53202;50.976;18.216;2022-08-16T01:56:49;23.10;;;14.40;;
57313;SDS011;53202;50.976;18.216;2022-08-16T01:59:15;18.20;;;14.70;;
57313;SDS011;53202;50.976;18.216;2022-08-16T02:01:42;20.00;;;15.10;;
57313;SDS011;53202;50.976;18.216;2022-08-16T02:04:09;16.40;;;14.70;;
57313;SDS011;53202;50.976;18.216;2022-08-16T02:06:35;17.50;;;13.80;;
57313;SDS011;53202;50.976;18.216;2022-08-16T02:09:02;18.70;;;14.70;;
57313;SDS011;53202;50.976;18.216;2022-08-16T02:11:28;17.90;;;14.40;;
57313;SDS011;53202;50.976;18.216;2022-08-16T02:13:54;15.90;;;14.20;;
57313;SDS011;53202;50.976;18.216;2022-08-16T02:16:21;17.30;;;14.20;;
57313;SDS011;53202;50.976;18.216;2022-08-16T02:18:47;15.50;;;13.80;;
57313;SDS011;53202;50.976;18.216;2022-08-16T02:21:13;18.80;;;14.10;;
57313;SDS011;53202;50.976;18.216;2022-08-16T02:23:40;17.30;;;14.20;;
57313;SDS011;53202;50.976;18.216;2022-08-16T02:26:06;15.80;;;14.00;;
57313;SDS011;53202;50.976;18.216;2022-08-16T02:28:33;16.90;;;14.10;;
57313;SDS011;53202;50.976;18.216;2022-08-16T02:31:02;15.40;;;13.80;;
57313;SDS011;53202;50.976;18.216;2022-08-16T02:33:30;25.10;;;15.80;;
57313;SDS011;53202;50.976;18.216;2022-08-16T02:35:57;19.20;;;13.80;;
57313;SDS011;53202;50.976;18.216;2022-08-16T02:38:23;17.20;;;15.40;;
57313;SDS011;53202;50.976;18.216;2022-08-16T02:40:50;20.50;;;15.60;;
57313;SDS011;53202;50.976;18.216;2022-08-16T02:43:17;20.20;;;16.00;;
57313;SDS011;53202;50.976;18.216;2022-08-16T02:45:43;18.80;;;14.30;;
57313;SDS011;53202;50.976;18.216;2022-08-16T02:48:09;16.00;;;14.40;;
57313;SDS011;53202;50.976;18.216;2022-08-16T02:50:35;18.90;;;15.50;;
57313;SDS011;53202;50.976;18.216;2022-08-16T02:53:01;19.30;;;15.50;;
57313;SDS011;53202;50.976;18.216;2022-08-16T02:55:27;18.10;;;14.50;;
57313;SDS011;53202;50.976;18.216;2022-08-16T02:57:54;16.60;;;14.70;;
57313;SDS011;53202;50.976;18.216;2022-08-16T03:00:20;16.80;;;15.00;;
57313;SDS011;53202;50.976;18.216;2022-08-16T03:02:46;18.00;;;15.70;;
57313;SDS011;53202;50.976;18.216;2022-08-16T03:05:13;18.90;;;15.50;;
57313;SDS011;53202;50.976;18.216;2022-08-16T03:07:40;17.60;;;15.20;;
57313;SDS011;53202;50.976;18.216;2022-08-16T03:10:09;17.80;;;15.40;;
57313;SDS011;53202;50.976;18.216;2022-08-16T03:12:37;21.30;;;17.10;;
57313;SDS011;53202;50.976;18.216;2022-08-16T03:15:05;17.00;;;15.20;;
57313;SDS011;53202;50.976;18.216;2022-08-16T03:17:32;19.70;;;16.30;;
57313;SDS011;53202;50.976;18.216;2022-08-16T03:19:59;20.20;;;16.00;;
57313;SDS011;53202;50.976;18.216;2022-08-16T03:22:25;18.80;;;16.90;;
57313;SDS011;53202;50.976;18.216;2022-08-16T03:24:52;18.40;;;16.10;;
57313;SDS011;53202;50.976;18.216;2022-08-16T03:27:18;19.30;;;16.70;;
57313;SDS011;53202;50.976;18.216;2022-08-16T03:29:44;19.30;;;16.30;;
57313;SDS011;53202;50.976;18.216;2022-08-16T03:32:10;19.10;;;16.40;;
57313;SDS011;53202;50.976;18.216;2022-08-16T03:34:36;21.00;;;17.50;;
57313;SDS011;53202;50.976;18.216;2022-08-16T03:37:03;18.50;;;16.40;;
57313;SDS011;53202;50.976;18.216;2022-08-16T03:39:29;19.70;;;16.60;;
57313;SDS011;53202;50.976;18.216;2022-08-16T03:41:55;19.30;;;17.20;;
57313;SDS011;53202;50.976;18.216;2022-08-16T03:44:21;23.40;;;17.80;;
57313;SDS011;53202;50.976;18.216;2022-08-16T03:46:47;24.60;;;17.90;;
57313;SDS011;53202;50.976;18.216;2022-08-16T03:49:13;22.20;;;18.10;;
57313;SDS011;53202;50.976;18.216;2022-08-16T03:51:41;20.90;;;17.20;;
57313;SDS011;53202;50.976;18.216;2022-08-16T03:54:07;19.40;;;16.60;;
57313;SDS011;53202;50.976;18.216;2022-08-16T03:56:33;22.00;;;17.90;;
57313;SDS011;53202;50.976;18.216;2022-08-16T03:58:59;19.40;;;16.90;;
57313;SDS011;53202;50.976;18.216;2022-08-16T04:01:25;22.50;;;17.50;;
57313;SDS011;53202;50.976;18.216;2022-08-16T04:03:51;19.20;;;16.20;;
57313;SDS011;53202;50.976;18.216;2022-08-16T04:06:18;22.60;;;18.20;;
57313;SDS011;53202;50.976;18.216;2022-08-16T04:08:47;26.30;;;18.80;;
57313;SDS011;53202;50.976;18.216;2022-08-16T04:11:13;21.60;;;17.40;;
57313;SDS011;53202;50.976;18.216;2022-08-16T04:13:40;21.70;;;16.30;;
57313;SDS011;53202;50.976;18.216;2022-08-16T04:16:06;18.70;;;16.60;;
57313;SDS011;53202;50.976;18.216;2022-08-16T04:18:33;22.30;;;18.10;;
57313;SDS011;53202;50.976;18.216;2022-08-16T04:21:01;20.10;;;17.20;;
57313;SDS011;53202;50.976;18.216;2022-08-16T04:23:27;23.20;;;18.00;;
57313;SDS011;53202;50.976;18.216;2022-08-16T04:25:53;18.20;;;16.20;;
57313;SDS011;53202;50.976;18.216;2022-08-16T04:28:19;20.20;;;17.10;;
57313;SDS011;53202;50.976;18.216;2022-08-16T04:30:45;24.50;;;18.80;;
57313;SDS011;53202;50.976;18.216;2022-08-16T04:33:11;21.60;;;18.80;;
57313;SDS011;53202;50.976;18.216;2022-08-16T04:35:37;23.40;;;19.20;;
57313;SDS011;53202;50.976;18.216;2022-08-16T04:38:03;45.30;;;21.10;;
57313;SDS011;53202;50.976;18.216;2022-08-16T04:40:30;22.80;;;20.00;;
57313;SDS011;53202;50.976;18.216;2022-08-16T04:42:56;25.30;;;18.30;;
57313;SDS011;53202;50.976;18.216;2022-08-16T04:45:25;21.00;;;18.30;;
57313;SDS011;53202;50.976;18.216;2022-08-16T04:47:51;21.00;;;16.50;;
57313;SDS011;53202;50.976;18.216;2022-08-16T04:50:18;20.50;;;16.70;;
57313;SDS011;53202;50.976;18.216;2022-08-16T04:52:47;19.60;;;16.00;;
57313;SDS011;53202;50.976;18.216;2022-08-16T04:55:17;23.00;;;17.40;;
57313;SDS011;53202;50.976;18.216;2022-08-16T04:57:46;23.70;;;18.60;;
57313;SDS011;53202;50.976;18.216;2022-08-16T05:00:16;20.50;;;16.10;;
57313;SDS011;53202;50.976;18.216;2022-08-16T05:02:44;20.00;;;16.70;;
57313;SDS011;53202;50.976;18.216;2022-08-16T05:05:11;20.40;;;16.60;;
57313;SDS011;53202;50.976;18.216;2022-08-16T05:07:38;18.00;;;16.00;;
57313;SDS011;53202;50.976;18.216;2022-08-16T05:10:05;26.70;;;21.80;;
57313;SDS011;53202;50.976;18.216;2022-08-16T05:12:33;18.10;;;16.10;;
57313;SDS011;53202;50.976;18.216;2022-08-16T05:15:00;22.50;;;16.90;;
57313;SDS011;53202;50.976;18.216;2022-08-16T05:17:26;19.20;;;16.40;;
57313;SDS011;53202;50.976;18.216;2022-08-16T05:19:52;26.70;;;16.00;;
57313;SDS011;53202;50.976;18.216;2022-08-16T05:22:18;18.40;;;15.70;;
57313;SDS011;53202;50.976;18.216;2022-08-16T05:24:44;19.80;;;16.50;;
57313;SDS011;53202;50.976;18.216;2022-08-16T05:27:10;22.00;;;15.90;;
57313;SDS011;53202;50.976;18.216;2022-08-16T05:29:36;20.60;;;16.40;;
57313;SDS011;53202;50.976;18.216;2022-08-16T05:32:02;21.70;;;15.80;;
57313;SDS011;53202;50.976;18.216;2022-08-16T05:34:29;22.20;;;16.40;;
57313;SDS011;53202;50.976;18.216;2022-08-16T05:36:55;21.00;;;15.90;;
57313;SDS011;53202;50.976;18.216;2022-08-16T05:39:22;26.70;;;13.80;;
57313;SDS011;53202;50.976;18.216;2022-08-16T05:41:49;18.20;;;13.60;;
57313;SDS011;53202;50.976;18.216;2022-08-16T05:44:16;21.00;;;14.90;;
57313;SDS011;53202;50.976;18.216;2022-08-16T05:46:44;18.60;;;15.20;;
57313;SDS011;53202;50.976;18.216;2022-08-16T05:49:11;23.70;;;14.90;;
57313;SDS011;53202;50.976;18.216;2022-08-16T05:51:42;18.30;;;14.40;;
57313;SDS011;53202;50.976;18.216;2022-08-16T05:54:09;30.70;;;23.60;;
57313;SDS011;53202;50.976;18.216;2022-08-16T05:56:38;21.00;;;17.30;;
57313;SDS011;53202;50.976;18.216;2022-08-16T05:59:04;18.50;;;15.40;;
57313;SDS011;53202;50.976;18.216;2022-08-16T06:01:30;18.40;;;15.80;;
57313;SDS011;53202;50.976;18.216;2022-08-16T06:03:59;19.70;;;15.70;;
57313;SDS011;53202;50.976;18.216;2022-08-16T06:06:25;25.60;;;14.90;;
57313;SDS011;53202;50.976;18.216;2022-08-16T06:08:51;32.70;;;15.20;;
57313;SDS011;53202;50.976;18.216;2022-08-16T06:11:17;17.00;;;13.90;;
57313;SDS011;53202;50.976;18.216;2022-08-16T06:13:43;17.80;;;13.30;;
57313;SDS011;53202;50.976;18.216;2022-08-16T06:16:11;15.70;;;13.30;;
57313;SDS011;53202;50.976;18.216;2022-08-16T06:18:38;17.40;;;13.90;;
57313;SDS011;53202;50.976;18.216;2022-08-16T06:21:04;17.20;;;13.90;;
57313;SDS011;53202;50.976;18.216;2022-08-16T06:23:30;16.50;;;13.30;;
57313;SDS011;53202;50.976;18.216;2022-08-16T06:25:56;17.60;;;13.00;;
57313;SDS011;53202;50.976;18.216;2022-08-16T06:28:22;14.20;;;12.00;;
57313;SDS011;53202;50.976;18.216;2022-08-16T06:30:48;14.50;;;11.50;;
57313;SDS011;53202;50.976;18.216;2022-08-16T06:33:15;16.40;;;11.80;;
57313;SDS011;53202;50.976;18.216;2022-08-16T06:35:42;12.90;;;11.60;;
57313;SDS011;53202;50.976;18.216;2022-08-16T06:38:08;13.50;;;11.90;;
57313;SDS011;53202;50.976;18.216;2022-08-16T06:40:34;13.30;;;11.60;;
57313;SDS011;53202;50.976;18.216;2022-08-16T06:43:01;13.50;;;12.20;;
57313;SDS011;53202;50.976;18.216;2022-08-16T06:45:27;13.50;;;11.10;;
57313;SDS011;53202;50.976;18.216;2022-08-16T06:47:53;15.80;;;12.00;;
57313;SDS011;53202;50.976;18.216;2022-08-16T06:50:19;14.00;;;11.20;;
57313;SDS011;53202;50.976;18.216;2022-08-16T06:52:45;14.20;;;10.80;;
57313;SDS011;53202;50.976;18.216;2022-08-16T06:55:12;14.60;;;11.90;;
57313;SDS011;53202;50.976;18.216;2022-08-16T06:57:39;11.70;;;9.70;;
57313;SDS011;53202;50.976;18.216;2022-08-16T07:00:07;12.40;;;9.90;;
57313;SDS011;53202;50.976;18.216;2022-08-16T07:02:37;12.60;;;8.80;;
57313;SDS011;53202;50.976;18.216;2022-08-16T07:05:05;13.10;;;8.50;;
57313;SDS011;53202;50.976;18.216;2022-08-16T07:07:32;11.80;;;7.60;;
57313;SDS011;53202;50.976;18.216;2022-08-16T07:09:59;11.60;;;8.40;;
57313;SDS011;53202;50.976;18.216;2022-08-16T07:12:25;10.20;;;8.70;;
57313;SDS011;53202;50.976;18.216;2022-08-16T07:14:51;10.00;;;8.00;;
57313;SDS011;53202;50.976;18.216;2022-08-16T07:17:20;11.90;;;7.60;;
57313;SDS011;53202;50.976;18.216;2022-08-16T07:19:47;11.40;;;9.40;;
57313;SDS011;53202;50.976;18.216;2022-08-16T07:22:14;10.00;;;8.90;;
57313;SDS011;53202;50.976;18.216;2022-08-16T07:24:41;9.20;;;8.30;;
57313;SDS011;53202;50.976;18.216;2022-08-16T07:27:08;15.40;;;8.70;;
57313;SDS011;53202;50.976;18.216;2022-08-16T07:29:34;12.20;;;9.10;;
57313;SDS011;53202;50.976;18.216;2022-08-16T07:32:01;14.60;;;9.10;;
57313;SDS011;53202;50.976;18.216;2022-08-16T07:34:27;9.70;;;8.00;;
57313;SDS011;53202;50.976;18.216;2022-08-16T07:36:53;11.80;;;8.30;;
57313;SDS011;53202;50.976;18.216;2022-08-16T07:39:19;9.80;;;8.20;;
57313;SDS011;53202;50.976;18.216;2022-08-16T07:41:45;12.00;;;8.10;;
57313;SDS011;53202;50.976;18.216;2022-08-16T07:44:12;8.40;;;7.50;;
57313;SDS011;53202;50.976;18.216;2022-08-16T07:46:38;15.70;;;8.30;;
57313;SDS011;53202;50.976;18.216;2022-08-16T07:49:04;10.50;;;8.30;;
57313;SDS011;53202;50.976;18.216;2022-08-16T07:51:31;8.80;;;7.90;;
57313;SDS011;53202;50.976;18.216;2022-08-16T07:53:59;8.30;;;7.50;;
57313;SDS011;53202;50.976;18.216;2022-08-16T07:56:27;11.40;;;7.90;;
57313;SDS011;53202;50.976;18.216;2022-08-16T07:58:54;9.30;;;7.60;;
57313;SDS011;53202;50.976;18.216;2022-08-16T08:01:22;9.90;;;7.90;;
57313;SDS011;53202;50.976;18.216;2022-08-16T08:03:49;11.20;;;7.50;;
57313;SDS011;53202;50.976;18.216;2022-08-16T08:06:17;12.80;;;7.40;;
57313;SDS011;53202;50.976;18.216;2022-08-16T08:08:44;9.40;;;8.20;;
57313;SDS011;53202;50.976;18.216;2022-08-16T08:11:10;8.50;;;7.60;;
57313;SDS011;53202;50.976;18.216;2022-08-16T08:13:37;8.40;;;7.00;;
57313;SDS011;53202;50.976;18.216;2022-08-16T08:16:03;8.20;;;7.00;;
57313;SDS011;53202;50.976;18.216;2022-08-16T08:18:29;8.50;;;7.70;;
57313;SDS011;53202;50.976;18.216;2022-08-16T08:20:56;9.70;;;7.40;;
57313;SDS011;53202;50.976;18.216;2022-08-16T08:23:23;10.10;;;7.90;;
57313;SDS011;53202;50.976;18.216;2022-08-16T08:25:53;9.40;;;8.50;;
57313;SDS011;53202;50.976;18.216;2022-08-16T08:28:19;8.40;;;7.60;;
57313;SDS011;53202;50.976;18.216;2022-08-16T08:30:45;8.30;;;7.40;;
57313;SDS011;53202;50.976;18.216;2022-08-16T08:33:12;13.30;;;7.70;;
57313;SDS011;53202;50.976;18.216;2022-08-16T08:35:38;6.60;;;6.00;;
57313;SDS011;53202;50.976;18.216;2022-08-16T08:38:04;12.90;;;6.80;;
57313;SDS011;53202;50.976;18.216;2022-08-16T08:40:32;11.50;;;7.00;;
57313;SDS011;53202;50.976;18.216;2022-08-16T08:43:00;7.00;;;6.20;;
57313;SDS011;53202;50.976;18.216;2022-08-16T08:45:27;7.60;;;6.60;;
57313;SDS011;53202;50.976;18.216;2022-08-16T08:47:54;7.70;;;6.60;;
57313;SDS011;53202;50.976;18.216;2022-08-16T08:50:21;6.60;;;5.90;;
57313;SDS011;53202;50.976;18.216;2022-08-16T08:52:48;9.20;;;6.00;;
57313;SDS011;53202;50.976;18.216;2022-08-16T08:55:16;7.90;;;6.00;;
57313;SDS011;53202;50.976;18.216;2022-08-16T08:57:44;9.10;;;5.60;;
57313;SDS011;53202;50.976;18.216;2022-08-16T09:00:12;14.90;;;13.20;;
57313;SDS011;53202;50.976;18.216;2022-08-16T09:02:41;8.80;;;6.60;;
57313;SDS011;53202;50.976;18.216;2022-08-16T09:05:08;7.60;;;6.00;;
57313;SDS011;53202;50.976;18.216;2022-08-16T09:07:34;9.00;;;6.30;;
57313;SDS011;53202;50.976;18.216;2022-08-16T09:10:02;7.30;;;6.50;;
57313;SDS011;53202;50.976;18.216;2022-08-16T09:12:29;11.10;;;7.00;;
57313;SDS011;53202;50.976;18.216;2022-08-16T09:14:55;8.50;;;7.00;;
57313;SDS011;53202;50.976;18.216;2022-08-16T09:17:23;7.70;;;6.40;;
57313;SDS011;53202;50.976;18.216;2022-08-16T09:19:49;7.10;;;6.30;;
57313;SDS011;53202;50.976;18.216;2022-08-16T09:22:16;9.50;;;6.60;;
57313;SDS011;53202;50.976;18.216;2022-08-16T09:24:43;7.40;;;6.30;;
57313;SDS011;53202;50.976;18.216;2022-08-16T09:27:09;7.20;;;6.40;;
57313;SDS011;53202;50.976;18.216;2022-08-16T09:29:36;8.00;;;6.50;;
57313;SDS011;53202;50.976;18.216;2022-08-16T09:32:02;7.90;;;6.30;;
57313;SDS011;53202;50.976;18.216;2022-08-16T09:34:28;8.80;;;6.20;;
57313;SDS011;53202;50.976;18.216;2022-08-16T09:36:54;9.00;;;6.40;;
57313;SDS011;53202;50.976;18.216;2022-08-16T09:39:23;7.50;;;5.70;;
57313;SDS011;53202;50.976;18.216;2022-08-16T09:41:50;9.10;;;6.30;;
57313;SDS011;53202;50.976;18.216;2022-08-16T09:44:22;10.40;;;6.70;;
57313;SDS011;53202;50.976;18.216;2022-08-16T09:46:49;6.80;;;6.20;;
57313;SDS011;53202;50.976;18.216;2022-08-16T09:49:15;7.50;;;6.80;;
57313;SDS011;53202;50.976;18.216;2022-08-16T09:51:42;12.40;;;6.50;;
57313;SDS011;53202;50.976;18.216;2022-08-16T09:54:09;9.90;;;6.00;;
57313;SDS011;53202;50.976;18.216;2022-08-16T09:56:37;6.20;;;5.30;;
57313;SDS011;53202;50.976;18.216;2022-08-16T09:59:06;14.90;;;6.20;;
57313;SDS011;53202;50.976;18.216;2022-08-16T10:01:35;15.40;;;6.30;;
57313;SDS011;53202;50.976;18.216;2022-08-16T10:04:02;8.10;;;6.50;;
57313;SDS011;53202;50.976;18.216;2022-08-16T10:06:30;10.80;;;6.30;;
57313;SDS011;53202;50.976;18.216;2022-08-16T10:08:55;7.10;;;6.40;;
57313;SDS011;53202;50.976;18.216;2022-08-16T10:11:21;9.90;;;6.30;;
57313;SDS011;53202;50.976;18.216;2022-08-16T10:14:02;6.90;;;6.00;;
57313;SDS011;53202;50.976;18.216;2022-08-16T10:16:29;6.10;;;5.50;;
57313;SDS011;53202;50.976;18.216;2022-08-16T10:18:55;8.00;;;6.00;;
57313;SDS011;53202;50.976;18.216;2022-08-16T10:21:21;8.00;;;5.50;;
57313;SDS011;53202;50.976;18.216;2022-08-16T10:23:48;6.30;;;5.70;;
57313;SDS011;53202;50.976;18.216;2022-08-16T10:26:16;6.60;;;5.30;;
57313;SDS011;53202;50.976;18.216;2022-08-16T10:28:43;11.70;;;5.50;;
57313;SDS011;53202;50.976;18.216;2022-08-16T10:31:09;6.00;;;5.10;;
57313;SDS011;53202;50.976;18.216;2022-08-16T10:33:38;7.80;;;5.40;;
57313;SDS011;53202;50.976;18.216;2022-08-16T10:36:04;6.30;;;5.70;;
57313;SDS011;53202;50.976;18.216;2022-08-16T10:38:33;8.00;;;5.60;;
57313;SDS011;53202;50.976;18.216;2022-08-16T10:41:00;6.00;;;5.40;;
57313;SDS011;53202;50.976;18.216;2022-08-16T10:43:27;7.40;;;6.10;;
57313;SDS011;53202;50.976;18.216;2022-08-16T10:45:53;6.20;;;5.30;;
57313;SDS011;53202;50.976;18.216;2022-08-16T10:48:20;7.50;;;5.80;;
57313;SDS011;53202;50.976;18.216;2022-08-16T10:50:46;5.80;;;5.20;;
57313;SDS011;53202;50.976;18.216;2022-08-16T10:53:12;6.50;;;5.40;;
57313;SDS011;53202;50.976;18.216;2022-08-16T10:55:39;5.50;;;4.90;;
57313;SDS011;53202;50.976;18.216;2022-08-16T10:58:07;7.40;;;6.20;;
57313;SDS011;53202;50.976;18.216;2022-08-16T11:00:36;5.10;;;4.70;;
57313;SDS011;53202;50.976;18.216;2022-08-16T11:03:05;6.30;;;5.80;;
57313;SDS011;53202;50.976;18.216;2022-08-16T11:05:33;7.10;;;5.60;;
57313;SDS011;53202;50.976;18.216;2022-08-16T11:08:02;10.00;;;5.50;;
57313;SDS011;53202;50.976;18.216;2022-08-16T11:10:31;7.40;;;5.60;;
57313;SDS011;53202;50.976;18.216;2022-08-16T11:13:00;10.30;;;6.00;;
57313;SDS011;53202;50.976;18.216;2022-08-16T11:15:27;8.40;;;6.10;;
57313;SDS011;53202;50.976;18.216;2022-08-16T11:17:53;6.50;;;5.80;;
57313;SDS011;53202;50.976;18.216;2022-08-16T11:20:20;6.90;;;6.10;;
57313;SDS011;53202;50.976;18.216;2022-08-16T11:22:47;7.00;;;6.30;;
57313;SDS011;53202;50.976;18.216;2022-08-16T11:25:17;7.10;;;5.70;;
57313;SDS011;53202;50.976;18.216;2022-08-16T11:27:46;7.90;;;6.90;;
57313;SDS011;53202;50.976;18.216;2022-08-16T11:30:13;7.90;;;6.70;;
57313;SDS011;53202;50.976;18.216;2022-08-16T11:32:41;9.40;;;6.80;;
57313;SDS011;53202;50.976;18.216;2022-08-16T11:35:10;6.20;;;5.60;;
57313;SDS011;53202;50.976;18.216;2022-08-16T11:37:38;7.40;;;5.40;;
57313;SDS011;53202;50.976;18.216;2022-08-16T11:40:06;11.90;;;5.80;;
57313;SDS011;53202;50.976;18.216;2022-08-16T11:42:33;8.00;;;5.80;;
57313;SDS011;53202;50.976;18.216;2022-08-16T11:44:59;6.70;;;6.10;;
57313;SDS011;53202;50.976;18.216;2022-08-16T11:47:25;6.10;;;5.60;;
57313;SDS011;53202;50.976;18.216;2022-08-16T11:49:51;7.10;;;5.60;;
57313;SDS011;53202;50.976;18.216;2022-08-16T11:52:20;8.20;;;5.70;;
57313;SDS011;53202;50.976;18.216;2022-08-16T11:54:48;11.20;;;5.90;;
57313;SDS011;53202;50.976;18.216;2022-08-16T11:57:14;6.40;;;5.80;;
57313;SDS011;53202;50.976;18.216;2022-08-16T11:59:40;8.90;;;4.90;;
57313;SDS011;53202;50.976;18.216;2022-08-16T12:02:06;6.30;;;5.70;;
57313;SDS011;53202;50.976;18.216;2022-08-16T12:04:34;6.60;;;5.90;;
57313;SDS011;53202;50.976;18.216;2022-08-16T12:07:02;6.50;;;5.20;;
57313;SDS011;53202;50.976;18.216;2022-08-16T12:09:30;9.80;;;5.90;;
57313;SDS011;53202;50.976;18.216;2022-08-16T12:11:56;9.20;;;5.50;;
57313;SDS011;53202;50.976;18.216;2022-08-16T12:14:23;6.00;;;5.40;;
57313;SDS011;53202;50.976;18.216;2022-08-16T12:16:50;10.40;;;5.50;;
57313;SDS011;53202;50.976;18.216;2022-08-16T12:19:16;7.20;;;5.80;;
57313;SDS011;53202;50.976;18.216;2022-08-16T12:21:44;5.10;;;4.70;;
57313;SDS011;53202;50.976;18.216;2022-08-16T12:24:10;7.30;;;5.60;;
57313;SDS011;53202;50.976;18.216;2022-08-16T12:26:36;8.50;;;6.50;;
57313;SDS011;53202;50.976;18.216;2022-08-16T12:29:04;7.40;;;5.60;;
57313;SDS011;53202;50.976;18.216;2022-08-16T12:31:30;8.20;;;5.30;;
57313;SDS011;53202;50.976;18.216;2022-08-16T12:33:57;6.60;;;5.30;;
57313;SDS011;53202;50.976;18.216;2022-08-16T12:36:23;7.30;;;6.00;;
57313;SDS011;53202;50.976;18.216;2022-08-16T12:38:50;6.80;;;6.00;;
57313;SDS011;53202;50.976;18.216;2022-08-16T12:41:17;9.20;;;6.20;;
57313;SDS011;53202;50.976;18.216;2022-08-16T12:43:43;9.40;;;7.10;;
57313;SDS011;53202;50.976;18.216;2022-08-16T12:46:09;6.10;;;5.50;;
57313;SDS011;53202;50.976;18.216;2022-08-16T12:48:39;11.60;;;5.90;;
57313;SDS011;53202;50.976;18.216;2022-08-16T12:51:20;9.40;;;5.60;;
57313;SDS011;53202;50.976;18.216;2022-08-16T12:53:48;5.50;;;4.90;;
57313;SDS011;53202;50.976;18.216;2022-08-16T12:56:17;6.40;;;5.40;;
57313;SDS011;53202;50.976;18.216;2022-08-16T12:58:45;6.30;;;5.60;;
57313;SDS011;53202;50.976;18.216;2022-08-16T13:01:17;5.90;;;5.30;;
57313;SDS011;53202;50.976;18.216;2022-08-16T13:03:45;5.30;;;4.80;;
57313;SDS011;53202;50.976;18.216;2022-08-16T13:06:12;5.70;;;4.80;;
57313;SDS011;53202;50.976;18.216;2022-08-16T13:08:39;6.10;;;5.50;;
57313;SDS011;53202;50.976;18.216;2022-08-16T13:11:06;5.30;;;4.70;;
57313;SDS011;53202;50.976;18.216;2022-08-16T13:13:33;5.80;;;5.30;;
57313;SDS011;53202;50.976;18.216;2022-08-16T13:16:00;5.50;;;4.70;;
57313;SDS011;53202;50.976;18.216;2022-08-16T13:18:28;7.20;;;5.30;;
57313;SDS011;53202;50.976;18.216;2022-08-16T13:20:56;7.10;;;4.90;;
57313;SDS011;53202;50.976;18.216;2022-08-16T13:23:22;9.30;;;5.50;;
57313;SDS011;53202;50.976;18.216;2022-08-16T13:25:48;5.90;;;5.40;;
57313;SDS011;53202;50.976;18.216;2022-08-16T13:28:16;7.00;;;5.90;;
57313;SDS011;53202;50.976;18.216;2022-08-16T13:30:45;6.60;;;5.80;;
57313;SDS011;53202;50.976;18.216;2022-08-16T13:33:14;8.20;;;6.00;;
57313;SDS011;53202;50.976;18.216;2022-08-16T13:35:46;7.20;;;6.60;;
57313;SDS011;53202;50.976;18.216;2022-08-16T13:38:15;6.90;;;6.30;;
57313;SDS011;53202;50.976;18.216;2022-08-16T13:40:41;10.00;;;6.40;;
57313;SDS011;53202;50.976;18.216;2022-08-16T13:43:07;6.50;;;5.80;;
57313;SDS011;53202;50.976;18.216;2022-08-16T13:45:33;11.50;;;6.70;;
57313;SDS011;53202;50.976;18.216;2022-08-16T13:48:00;18.50;;;6.60;;
57313;SDS011;53202;50.976;18.216;2022-08-16T13:50:26;11.60;;;5.80;;
57313;SDS011;53202;50.976;18.216;2022-08-16T13:52:53;13.40;;;4.90;;
57313;SDS011;53202;50.976;18.216;2022-08-16T13:55:21;14.70;;;5.40;;
57313;SDS011;53202;50.976;18.216;2022-08-16T13:57:48;12.80;;;6.30;;
57313;SDS011;53202;50.976;18.216;2022-08-16T14:00:15;11.90;;;6.20;;
57313;SDS011;53202;50.976;18.216;2022-08-16T14:02:42;13.70;;;7.00;;
57313;SDS011;53202;50.976;18.216;2022-08-16T14:05:09;11.50;;;5.40;;
57313;SDS011;53202;50.976;18.216;2022-08-16T14:07:35;12.30;;;5.50;;
57313;SDS011;53202;50.976;18.216;2022-08-16T14:10:04;6.80;;;5.30;;
57313;SDS011;53202;50.976;18.216;2022-08-16T14:12:32;12.30;;;5.20;;
57313;SDS011;53202;50.976;18.216;2022-08-16T14:14:59;12.20;;;5.10;;
57313;SDS011;53202;50.976;18.216;2022-08-16T14:17:26;4.90;;;4.40;;
57313;SDS011;53202;50.976;18.216;2022-08-16T14:19:53;4.50;;;3.70;;
57313;SDS011;53202;50.976;18.216;2022-08-16T14:22:21;3.60;;;3.30;;
57313;SDS011;53202;50.976;18.216;2022-08-16T14:24:51;3.80;;;3.40;;
57313;SDS011;53202;50.976;18.216;2022-08-16T14:27:19;4.70;;;3.30;;
57313;SDS011;53202;50.976;18.216;2022-08-16T14:29:47;5.60;;;3.90;;